Storm Lake Municipal Airport

About
Name: Storm Lake Municipal Airport
Identifier:  SLB/KSLB
Local Time:  18. Aug 08:31 CDT
Location
Flights per Day
0 flights
Distance: 165km (103mi)
Punctuality
50% (0 flights per day delayed)
Delay Average: 25 minutes
Current Weather
 16 C (Humidity: 100%)
  4kt (7km/h / 4mph) from 130°
  16km (10 mi.)
 
 METAR KSLB 181315Z AUTO 13004KT 10SM CLR 16/16 A2984 RMK AO2

Current Flights

Departures
Number Departure To Airline
Arrivals
Number Arrival From Airline

Current Delays

Departures
N/A
Arrivals
N/A

Destinations

Top Destinations
Airport Flights
per week
Seats
per week
  Fremont (FET) 0 - 0 0
  Minneapolis (FCM) 0 - 0 0
  Des Moines (DSM) 0 - 0 0
  Rapid City (RAP) 0 - 0 0
  Las Vegas (VGT) 0 - 0 0

Airlines & Planes

Top Airlines
Airline Flights
per Day
Seats
per Day
  Nolinor Aviation 0 -
  National Airlines 0 -
Nordwind Airlines 0 -
  Novair 0 -
Top Plane Types
Model Flights Seats
Beech B200 Super King Air 0.1/day - 0
Hawker 900XP 0.0/day - 0